createdAt,value
2017-02-13T00:00:28.307Z,-3.62
2017-02-13T00:01:41.379Z,-3.77
2017-02-13T00:02:54.443Z,-3.74
2017-02-13T00:04:07.543Z,-3.66
2017-02-13T00:05:20.412Z,-3.78
2017-02-13T00:06:33.525Z,-3.71
2017-02-13T00:07:46.627Z,-3.77
2017-02-13T00:08:59.705Z,-3.88
2017-02-13T00:10:12.777Z,-3.88
2017-02-13T00:11:25.850Z,-3.85
2017-02-13T00:12:38.537Z,-3.95
2017-02-13T00:13:51.607Z,-3.96
2017-02-13T00:15:04.720Z,-3.98
2017-02-13T00:16:17.440Z,-3.9
2017-02-13T00:17:30.451Z,-4.02
2017-02-13T00:18:43.546Z,-4.01
2017-02-13T00:19:56.637Z,-4.02
2017-02-13T00:21:09.734Z,-4.09
2017-02-13T00:22:22.495Z,-4.13
2017-02-13T00:23:35.531Z,-4.05
2017-02-13T00:24:48.578Z,-4.19
2017-02-13T00:26:01.697Z,-4.16
2017-02-13T00:27:14.742Z,-4.23
2017-02-13T00:28:27.809Z,-4.19
2017-02-13T00:29:40.884Z,-4.23
2017-02-13T00:30:53.956Z,-4.22
2017-02-13T00:32:07.049Z,-4.35
2017-02-13T00:33:19.717Z,-4.38
2017-02-13T00:34:32.786Z,-4.3
2017-02-13T00:35:45.907Z,-4.33
2017-02-13T00:36:59.003Z,-4.35
2017-02-13T00:38:11.691Z,-4.47
2017-02-13T00:39:24.776Z,-4.4
2017-02-13T00:40:37.847Z,-4.41
2017-02-13T00:41:50.968Z,-4.47
2017-02-13T00:43:04.086Z,-4.44
2017-02-13T00:44:17.155Z,-4.49
2017-02-13T00:45:29.817Z,-4.41
2017-02-13T00:46:42.894Z,-4.56
2017-02-13T00:47:56.040Z,-4.59
2017-02-13T00:49:09.162Z,-4.58
2017-02-13T00:50:22.268Z,-4.65
2017-02-13T00:51:35.413Z,-4.63
2017-02-13T00:52:48.482Z,-4.61
2017-02-13T00:54:01.558Z,-4.63
2017-02-13T00:55:14.265Z,-4.65
2017-02-13T00:56:27.319Z,-4.63
2017-02-13T00:57:40.440Z,-4.74
2017-02-13T00:58:53.529Z,-4.67
2017-02-13T01:00:06.626Z,-4.65
2017-02-13T01:01:19.770Z,-4.79
2017-02-13T01:02:32.494Z,-4.88
2017-02-13T01:03:45.638Z,-4.71
2017-02-13T01:04:58.688Z,-4.9
2017-02-13T01:06:11.014Z,-4.8
2017-02-13T01:07:23.700Z,-4.77
2017-02-13T01:08:36.376Z,-4.9
2017-02-13T01:09:49.474Z,-4.76
2017-02-13T01:11:02.563Z,-4.83
2017-02-13T01:12:15.657Z,-4.84
2017-02-13T01:13:27.962Z,-4.87
2017-02-13T01:14:41.019Z,-4.77
2017-02-13T01:15:54.121Z,-4.81
2017-02-13T01:17:06.803Z,-4.87
2017-02-13T01:18:19.839Z,-4.83
2017-02-13T01:19:32.941Z,-4.95
2017-02-13T01:20:45.998Z,-4.91
2017-02-13T01:21:59.082Z,-4.92
2017-02-13T01:23:12.192Z,-4.88
2017-02-13T01:24:25.291Z,-4.95
2017-02-13T01:25:38.394Z,-5
2017-02-13T01:26:51.515Z,-4.94
2017-02-13T01:28:04.264Z,-4.97
2017-02-13T01:29:17.339Z,-5.05
2017-02-13T01:30:30.419Z,-5.08
2017-02-13T01:31:43.541Z,-5.09
2017-02-13T01:32:56.663Z,-5.02
2017-02-13T01:34:09.764Z,-5
2017-02-13T01:35:22.880Z,-5.01
2017-02-13T01:36:35.927Z,-5.08
2017-02-13T01:37:49.016Z,-5.1
2017-02-13T01:39:02.135Z,-5.09
2017-02-13T01:40:15.245Z,-5.02
2017-02-13T01:41:28.335Z,-5.09
2017-02-13T01:42:41.398Z,-5.06
2017-02-13T01:43:54.525Z,-5.09
2017-02-13T01:45:07.623Z,-5.12
2017-02-13T01:46:20.699Z,-5.19
2017-02-13T01:47:34.045Z,-5.09
2017-02-13T01:48:47.160Z,-5.06
2017-02-13T01:50:00.211Z,-5.01
2017-02-13T01:51:12.508Z,-5.17
2017-02-13T01:52:25.621Z,-5.13
2017-02-13T01:53:38.726Z,-5.19
2017-02-13T01:54:51.764Z,-5.17
2017-02-13T01:56:04.867Z,-5.25
2017-02-13T01:57:17.588Z,-5.2
2017-02-13T01:58:30.270Z,-5.19
2017-02-13T01:59:43.339Z,-5.32
2017-02-13T02:00:56.375Z,-5.32
2017-02-13T02:02:09.071Z,-5.2
2017-02-13T02:03:22.385Z,-5.32
2017-02-13T02:04:35.499Z,-5.28
2017-02-13T02:05:48.550Z,-5.27
2017-02-13T02:07:01.624Z,-5.27
2017-02-13T02:08:14.312Z,-5.32
2017-02-13T02:09:27.370Z,-5.31
2017-02-13T02:10:40.461Z,-5.34
2017-02-13T02:11:53.574Z,-5.3
2017-02-13T02:13:06.651Z,-5.32
2017-02-13T02:14:19.348Z,-5.37
2017-02-13T02:15:32.484Z,-5.31
2017-02-13T02:16:45.591Z,-5.31
2017-02-13T02:17:58.693Z,-5.27
2017-02-13T02:19:11.780Z,-5.28
2017-02-13T02:20:24.881Z,-5.34
2017-02-13T02:21:37.966Z,-5.37
2017-02-13T02:22:51.044Z,-5.28
2017-02-13T02:24:04.140Z,-5.34
2017-02-13T02:25:16.804Z,-5.41
2017-02-13T02:26:29.889Z,-5.43
2017-02-13T02:27:42.977Z,-5.37
2017-02-13T02:28:56.086Z,-5.39
2017-02-13T02:30:09.172Z,-5.28
2017-02-13T02:31:21.847Z,-5.35
2017-02-13T02:32:34.937Z,-5.38
2017-02-13T02:33:47.988Z,-5.35
2017-02-13T02:35:01.120Z,-5.34
2017-02-13T02:36:13.781Z,-5.34
2017-02-13T02:37:26.887Z,-5.39
2017-02-13T02:38:39.984Z,-5.43
2017-02-13T02:39:53.079Z,-5.46
2017-02-13T02:41:06.164Z,-5.39
2017-02-13T02:42:19.247Z,-5.46
2017-02-13T02:43:32.324Z,-5.48
2017-02-13T02:44:45.401Z,-5.46
2017-02-13T02:45:58.485Z,-5.5
2017-02-13T02:47:11.554Z,-5.41
2017-02-13T02:48:24.214Z,-5.41
2017-02-13T02:49:37.334Z,-5.48
2017-02-13T02:50:50.036Z,-5.45
2017-02-13T02:52:03.137Z,-5.5
2017-02-13T02:53:15.424Z,-5.58
2017-02-13T02:54:28.504Z,-5.52
2017-02-13T02:55:41.184Z,-5.55
2017-02-13T02:56:54.259Z,-5.58
2017-02-13T02:58:06.949Z,-5.53
2017-02-13T02:59:20.013Z,-5.5
2017-02-13T03:00:33.067Z,-5.56
2017-02-13T03:01:46.130Z,-5.55
2017-02-13T03:02:59.210Z,-5.58
2017-02-13T03:04:12.304Z,-5.56
2017-02-13T03:05:24.978Z,-5.55
2017-02-13T03:06:38.128Z,-5.55
2017-02-13T03:07:50.847Z,-5.6
2017-02-13T03:09:03.925Z,-5.53
2017-02-13T03:10:16.626Z,-5.55
2017-02-13T03:11:29.699Z,-5.55
2017-02-13T03:12:42.369Z,-5.56
2017-02-13T03:13:55.471Z,-5.55
2017-02-13T03:15:08.149Z,-5.6
2017-02-13T03:16:21.238Z,-5.63
2017-02-13T03:17:34.309Z,-5.63
2017-02-13T03:18:47.636Z,-5.59
2017-02-13T03:20:00.701Z,-5.64
2017-02-13T03:21:13.403Z,-5.68
2017-02-13T03:22:26.469Z,-5.66
2017-02-13T03:23:39.557Z,-5.64
2017-02-13T03:24:52.651Z,-5.67
2017-02-13T03:26:05.731Z,-5.63
2017-02-13T03:27:18.019Z,-5.68
2017-02-13T03:28:31.046Z,-5.7
2017-02-13T03:29:44.143Z,-5.63
2017-02-13T03:30:57.214Z,-5.66
2017-02-13T03:32:09.993Z,-5.71
2017-02-13T03:33:22.698Z,-5.67
2017-02-13T03:34:35.758Z,-5.73
2017-02-13T03:35:48.803Z,-5.74
2017-02-13T03:37:01.870Z,-5.74
2017-02-13T03:38:14.931Z,-5.71
2017-02-13T03:39:27.985Z,-5.71
2017-02-13T03:40:41.078Z,-5.78
2017-02-13T03:41:54.153Z,-5.68
2017-02-13T03:43:06.815Z,-5.84
2017-02-13T03:44:19.866Z,-5.73
2017-02-13T03:45:32.991Z,-5.77
2017-02-13T03:46:46.329Z,-5.77
2017-02-13T03:47:59.437Z,-5.77
2017-02-13T03:49:12.538Z,-5.74
2017-02-13T03:50:25.623Z,-5.77
2017-02-13T03:51:38.751Z,-5.81
2017-02-13T03:52:51.865Z,-5.88
2017-02-13T03:54:05.001Z,-5.87
2017-02-13T03:55:18.049Z,-5.94
2017-02-13T03:56:31.138Z,-5.91
2017-02-13T03:57:44.197Z,-5.87
2017-02-13T03:58:57.297Z,-5.85
2017-02-13T04:00:09.989Z,-5.92
2017-02-13T04:01:23.091Z,-5.91
2017-02-13T04:02:35.830Z,-5.88
2017-02-13T04:03:48.959Z,-5.94
2017-02-13T04:05:02.116Z,-5.91
2017-02-13T04:06:15.171Z,-5.94
2017-02-13T04:07:28.240Z,-5.89
2017-02-13T04:08:41.287Z,-5.88
2017-02-13T04:09:54.363Z,-6
2017-02-13T04:11:07.403Z,-5.94
2017-02-13T04:12:20.483Z,-5.95
2017-02-13T04:13:32.809Z,-5.94
2017-02-13T04:14:45.881Z,-5.95
2017-02-13T04:15:58.943Z,-5.95
2017-02-13T04:17:12.029Z,-5.92
2017-02-13T04:18:25.370Z,-5.99
2017-02-13T04:19:38.426Z,-5.94
2017-02-13T04:20:51.499Z,-6
2017-02-13T04:22:04.598Z,-5.97
2017-02-13T04:23:17.318Z,-5.91
2017-02-13T04:24:30.414Z,-5.95
2017-02-13T04:25:43.522Z,-5.94
2017-02-13T04:26:56.574Z,-6
2017-02-13T04:28:09.294Z,-5.89
2017-02-13T04:29:22.357Z,-5.95
2017-02-13T04:30:35.391Z,-5.92
2017-02-13T04:31:48.065Z,-6.03
2017-02-13T04:33:01.145Z,-5.95
2017-02-13T04:34:14.217Z,-5.97
2017-02-13T04:35:27.300Z,-5.99
2017-02-13T04:36:40.323Z,-5.99
2017-02-13T04:37:53.380Z,-6.02
2017-02-13T04:39:06.460Z,-6.02
2017-02-13T04:40:19.520Z,-5.99
2017-02-13T04:41:32.143Z,-6.06
2017-02-13T04:42:45.176Z,-5.97
2017-02-13T04:43:57.897Z,-6.05
2017-02-13T04:45:10.992Z,-6.03
2017-02-13T04:46:24.058Z,-6.07
2017-02-13T04:47:36.736Z,-6.06
2017-02-13T04:48:49.884Z,-6.07
2017-02-13T04:50:03.027Z,-6.07
2017-02-13T04:51:15.733Z,-6
2017-02-13T04:52:28.820Z,-6
2017-02-13T04:53:41.883Z,-5.99
2017-02-13T04:54:54.986Z,-6.07
2017-02-13T04:56:08.067Z,-5.97
2017-02-13T04:57:21.146Z,-6.21
2017-02-13T04:58:34.194Z,-6.05
2017-02-13T04:59:46.911Z,-6.06
2017-02-13T05:01:00.008Z,-6.1
2017-02-13T05:02:13.354Z,-6.06
2017-02-13T05:03:26.431Z,-6.06
2017-02-13T05:04:39.519Z,-6.09
2017-02-13T05:05:52.609Z,-6.09
2017-02-13T05:07:05.680Z,-6.1
2017-02-13T05:08:18.765Z,-6.06
2017-02-13T05:09:31.861Z,-6.12
2017-02-13T05:10:44.925Z,-6.07
2017-02-13T05:11:58.003Z,-6.2
2017-02-13T05:13:11.048Z,-6.16
2017-02-13T05:14:24.155Z,-6.16
2017-02-13T05:15:36.800Z,-6.2
2017-02-13T05:16:49.897Z,-6.15
2017-02-13T05:18:02.977Z,-6.2
2017-02-13T05:19:15.697Z,-6.21
2017-02-13T05:20:28.791Z,-6.18
2017-02-13T05:21:41.489Z,-6.21
2017-02-13T05:22:54.526Z,-6.13
2017-02-13T05:24:07.591Z,-6.21
2017-02-13T05:25:20.300Z,-6.21
2017-02-13T05:26:33.375Z,-6.18
2017-02-13T05:27:46.119Z,-6.23
2017-02-13T05:28:59.223Z,-6.24
2017-02-13T05:30:12.334Z,-6.21
2017-02-13T05:31:25.415Z,-6.2
2017-02-13T05:32:38.500Z,-6.21
2017-02-13T05:33:51.564Z,-6.27
2017-02-13T05:35:04.700Z,-6.26
2017-02-13T05:36:17.406Z,-6.26
2017-02-13T05:37:30.434Z,-6.2
2017-02-13T05:38:43.505Z,-6.26
2017-02-13T05:39:56.826Z,-6.24
2017-02-13T05:41:09.549Z,-6.23
2017-02-13T05:42:22.611Z,-6.23
2017-02-13T05:43:35.664Z,-6.23
2017-02-13T05:44:48.733Z,-6.23
2017-02-13T05:46:01.874Z,-6.24
2017-02-13T05:47:14.944Z,-6.27
2017-02-13T05:48:28.055Z,-6.27
2017-02-13T05:49:40.767Z,-6.31
2017-02-13T05:50:53.863Z,-6.31
2017-02-13T05:52:06.910Z,-6.36
2017-02-13T05:53:19.581Z,-6.27
2017-02-13T05:54:32.608Z,-6.23
2017-02-13T05:55:45.697Z,-6.36
2017-02-13T05:56:58.766Z,-6.27
2017-02-13T05:58:11.497Z,-6.33
2017-02-13T05:59:24.246Z,-6.36
2017-02-13T06:00:37.354Z,-6.36
2017-02-13T06:01:50.407Z,-6.33
2017-02-13T06:03:03.523Z,-6.33
2017-02-13T06:04:16.600Z,-6.38
2017-02-13T06:05:29.721Z,-6.34
2017-02-13T06:06:42.385Z,-6.3
2017-02-13T06:07:55.457Z,-6.39
2017-02-13T06:09:08.528Z,-6.33
2017-02-13T06:10:21.589Z,-6.33
2017-02-13T06:11:34.670Z,-6.31
2017-02-13T06:12:47.738Z,-6.36
2017-02-13T06:14:00.817Z,-6.41
2017-02-13T06:15:13.162Z,-6.39
2017-02-13T06:16:26.238Z,-6.36
2017-02-13T06:17:39.610Z,-6.36
2017-02-13T06:18:52.686Z,-6.39
2017-02-13T06:20:05.384Z,-6.41
2017-02-13T06:21:18.087Z,-6.44
2017-02-13T06:22:31.199Z,-6.34
2017-02-13T06:23:44.289Z,-6.39
2017-02-13T06:24:57.376Z,-6.39
2017-02-13T06:26:10.488Z,-6.39
2017-02-13T06:27:23.614Z,-6.41
2017-02-13T06:28:36.728Z,-6.34
2017-02-13T06:29:49.818Z,-6.48
2017-02-13T06:31:02.928Z,-6.39
2017-02-13T06:32:15.629Z,-6.45
2017-02-13T06:33:28.726Z,-6.36
2017-02-13T06:34:41.816Z,-6.39
2017-02-13T06:35:54.894Z,-6.48
2017-02-13T06:37:07.964Z,-6.39
2017-02-13T06:38:20.654Z,-6.36
2017-02-13T06:39:33.592Z,-6.38
2017-02-13T06:40:46.644Z,-6.46
2017-02-13T06:41:59.759Z,-6.49
2017-02-13T06:43:12.861Z,-6.36
2017-02-13T06:44:25.909Z,-6.38
2017-02-13T06:45:39.006Z,-6.45
2017-02-13T06:46:52.107Z,-6.42
2017-02-13T06:48:05.254Z,-6.41
2017-02-13T06:49:17.994Z,-6.38
2017-02-13T06:50:31.039Z,-6.39
2017-02-13T06:51:44.151Z,-6.36
2017-02-13T06:52:57.197Z,-6.38
2017-02-13T06:54:10.299Z,-6.38
2017-02-13T06:55:23.370Z,-6.34
2017-02-13T06:56:36.492Z,-6.33
2017-02-13T06:57:49.588Z,-6.39
2017-02-13T06:59:02.650Z,-6.44
2017-02-13T07:00:15.734Z,-6.42
2017-02-13T07:01:29.074Z,-6.38
2017-02-13T07:02:42.177Z,-6.34
2017-02-13T07:03:55.273Z,-6.38
2017-02-13T07:05:08.338Z,-6.36
2017-02-13T07:06:21.082Z,-6.38
2017-02-13T07:07:34.159Z,-6.36
2017-02-13T07:08:47.223Z,-6.31
2017-02-13T07:10:00.297Z,-6.36
2017-02-13T07:11:12.999Z,-6.34
2017-02-13T07:12:26.094Z,-6.31
2017-02-13T07:13:38.789Z,-6.3
2017-02-13T07:14:51.496Z,-6.34
2017-02-13T07:16:04.601Z,-6.24
2017-02-13T07:17:16.882Z,-6.2
2017-02-13T07:18:29.980Z,-6.24
2017-02-13T07:19:43.163Z,-6.18
2017-02-13T07:20:55.841Z,-6.27
2017-02-13T07:22:08.915Z,-6.2
2017-02-13T07:23:22.007Z,-6.23
2017-02-13T07:24:35.089Z,-6.21
2017-02-13T07:25:48.170Z,-6.12
2017-02-13T07:27:01.245Z,-6.12
2017-02-13T07:28:14.590Z,-6.16
2017-02-13T07:29:27.647Z,-6.13
2017-02-13T07:30:40.694Z,-6.09
2017-02-13T07:31:53.777Z,-6.09
2017-02-13T07:33:06.867Z,-6.06
2017-02-13T07:34:19.614Z,-6.02
2017-02-13T07:35:32.690Z,-6.03
2017-02-13T07:36:45.787Z,-6.02
2017-02-13T07:37:58.868Z,-6.03
2017-02-13T07:39:11.972Z,-5.97
2017-02-13T07:40:25.045Z,-5.99
2017-02-13T07:41:38.164Z,-5.92
2017-02-13T07:42:51.241Z,-5.99
2017-02-13T07:44:04.323Z,-5.97
2017-02-13T07:45:17.019Z,-5.95
2017-02-13T07:46:49.199Z,-6.03
2017-02-13T07:48:02.274Z,-5.89
2017-02-13T07:49:14.574Z,-5.91
2017-02-13T07:50:27.675Z,-5.92
2017-02-13T07:51:40.754Z,-5.88
2017-02-13T07:52:53.843Z,-5.77
2017-02-13T07:54:06.947Z,-5.77
2017-02-13T07:55:20.023Z,-5.77
2017-02-13T07:56:33.137Z,-5.68
2017-02-13T07:57:46.236Z,-5.66
2017-02-13T07:58:59.310Z,-5.7
2017-02-13T08:00:12.027Z,-5.59
2017-02-13T08:01:24.725Z,-5.66
2017-02-13T08:02:37.849Z,-5.63
2017-02-13T08:03:50.963Z,-5.6
2017-02-13T08:05:04.070Z,-5.6
2017-02-13T08:06:17.212Z,-5.55
2017-02-13T08:07:30.308Z,-5.41
2017-02-13T08:08:43.363Z,-5.5
2017-02-13T08:09:56.417Z,-5.41
2017-02-13T08:11:09.519Z,-5.43
2017-02-13T08:12:22.666Z,-5.41
2017-02-13T08:13:35.748Z,-5.35
2017-02-13T08:14:48.802Z,-5.38
2017-02-13T08:16:01.866Z,-5.38
2017-02-13T08:17:14.536Z,-5.41
2017-02-13T08:18:27.590Z,-5.3
2017-02-13T08:19:40.685Z,-5.27
2017-02-13T08:20:53.742Z,-5.21
2017-02-13T08:22:06.852Z,-5.12
2017-02-13T08:23:19.174Z,-5.1
2017-02-13T08:24:32.275Z,-5.13
2017-02-13T08:25:45.339Z,-5.13
2017-02-13T08:26:58.396Z,-5.08
2017-02-13T08:28:11.512Z,-5.05
2017-02-13T08:29:24.569Z,-4.95
2017-02-13T08:30:37.228Z,-5
2017-02-13T08:31:50.326Z,-4.91
2017-02-13T08:33:03.088Z,-4.92
2017-02-13T08:34:16.209Z,-4.88
2017-02-13T08:35:29.261Z,-4.92
2017-02-13T08:36:41.533Z,-4.83
2017-02-13T08:37:54.604Z,-4.9
2017-02-13T08:39:07.695Z,-4.77
2017-02-13T08:40:20.341Z,-4.79
2017-02-13T08:41:33.420Z,-4.69
2017-02-13T08:42:46.165Z,-4.71
2017-02-13T08:43:58.832Z,-4.63
2017-02-13T08:45:11.879Z,-4.63
2017-02-13T08:46:24.545Z,-4.62
2017-02-13T08:47:37.621Z,-4.62
2017-02-13T08:48:50.723Z,-4.51
2017-02-13T08:50:03.857Z,-4.49
2017-02-13T08:51:16.553Z,-4.37
2017-02-13T08:52:29.622Z,-4.44
2017-02-13T08:53:42.702Z,-4.42
2017-02-13T08:54:55.768Z,-4.38
2017-02-13T08:56:08.479Z,-4.34
2017-02-13T08:57:21.188Z,-4.31
2017-02-13T08:58:34.288Z,-4.33
2017-02-13T08:59:47.324Z,-4.38
2017-02-13T09:01:00.451Z,-4.16
2017-02-13T09:02:13.566Z,-4.22
2017-02-13T09:03:26.611Z,-4.19
2017-02-13T09:04:39.283Z,-4.22
2017-02-13T09:05:52.403Z,-4.02
2017-02-13T09:07:05.540Z,-4.01
2017-02-13T09:08:18.258Z,-4.06
2017-02-13T09:09:30.982Z,-4.02
2017-02-13T09:10:43.693Z,-3.95
2017-02-13T09:11:56.751Z,-3.95
2017-02-13T09:13:09.789Z,-3.91
2017-02-13T09:14:22.880Z,-3.83
2017-02-13T09:15:35.945Z,-3.78
2017-02-13T09:16:48.948Z,-3.85
2017-02-13T09:18:02.085Z,-3.8
2017-02-13T09:19:15.218Z,-3.77
2017-02-13T09:20:28.345Z,-3.69
2017-02-13T09:21:41.399Z,-3.69
2017-02-13T09:22:54.495Z,-3.61
2017-02-13T09:24:07.616Z,-3.65
2017-02-13T09:25:20.686Z,-3.59
2017-02-13T09:26:33.762Z,-3.5
2017-02-13T09:27:46.854Z,-3.44
2017-02-13T09:28:59.956Z,-3.47
2017-02-13T09:30:13.049Z,-3.4
2017-02-13T09:31:25.759Z,-3.36
2017-02-13T09:32:38.868Z,-3.3
2017-02-13T09:33:51.989Z,-3.29
2017-02-13T09:35:05.152Z,-3.23
2017-02-13T09:36:17.475Z,-3.23
2017-02-13T09:37:30.527Z,-3.23
2017-02-13T09:38:43.225Z,-3.12
2017-02-13T09:39:56.362Z,-3.14
2017-02-13T09:41:09.471Z,-3.07
2017-02-13T09:42:22.557Z,-3.08
2017-02-13T09:43:35.632Z,-2.98
2017-02-13T09:44:48.672Z,-2.96
2017-02-13T09:46:01.718Z,-2.93
2017-02-13T09:47:14.818Z,-2.93
2017-02-13T09:48:27.890Z,-2.87
2017-02-13T09:49:40.585Z,-2.84
2017-02-13T09:50:53.651Z,-2.8
2017-02-13T09:52:06.353Z,-2.78
2017-02-13T09:53:19.468Z,-2.83
2017-02-13T09:54:32.514Z,-2.76
2017-02-13T09:55:45.634Z,-2.69
2017-02-13T09:56:58.761Z,-2.68
2017-02-13T09:58:11.834Z,-2.69
2017-02-13T09:59:24.914Z,-2.72
2017-02-13T10:00:37.993Z,-2.58
2017-02-13T10:01:51.047Z,-2.61
2017-02-13T10:03:04.161Z,-2.52
2017-02-13T10:04:16.886Z,-2.5
2017-02-13T10:05:29.987Z,-2.45
2017-02-13T10:06:43.123Z,-2.36
2017-02-13T10:07:55.411Z,-2.4
2017-02-13T10:09:08.557Z,-2.29
2017-02-13T10:10:21.285Z,-2.26
2017-02-13T10:11:34.361Z,-2.29
2017-02-13T10:12:47.475Z,-2.15
2017-02-13T10:14:00.566Z,-2.15
2017-02-13T10:15:13.641Z,-2.18
2017-02-13T10:16:25.982Z,-2.11
2017-02-13T10:17:39.116Z,-2.15
2017-02-13T10:18:51.809Z,-2.05
2017-02-13T10:20:04.902Z,-2.1
2017-02-13T10:21:16.817Z,-2
2017-02-13T10:22:29.500Z,-2
2017-02-13T10:23:42.621Z,-2
2017-02-13T10:24:55.729Z,-2.08
2017-02-13T10:26:08.837Z,-1.9
2017-02-13T10:27:21.908Z,-1.84
2017-02-13T10:28:34.978Z,-1.81
2017-02-13T10:29:47.679Z,-1.78
2017-02-13T10:31:00.764Z,-1.86
2017-02-13T10:32:13.877Z,-1.69
2017-02-13T10:33:26.638Z,-1.66
2017-02-13T10:34:39.303Z,-1.66
2017-02-13T10:35:51.998Z,-1.72
2017-02-13T10:37:05.101Z,-1.61
2017-02-13T10:38:17.782Z,-1.56
2017-02-13T10:39:30.817Z,-1.54
2017-02-13T10:40:43.907Z,-1.5
2017-02-13T10:41:57.005Z,-1.4
2017-02-13T10:43:09.676Z,-1.46
2017-02-13T10:44:22.749Z,-1.38
2017-02-13T10:45:35.807Z,-1.33
2017-02-13T10:46:48.941Z,-1.3
2017-02-13T10:48:02.074Z,-1.32
2017-02-13T10:49:14.353Z,-1.29
2017-02-13T10:50:27.398Z,-1.22
2017-02-13T10:51:40.519Z,-1.17
2017-02-13T10:52:53.291Z,-1.17
2017-02-13T10:54:06.367Z,-1.22
2017-02-13T10:55:19.476Z,-1.21
2017-02-13T10:56:32.578Z,-1.06
2017-02-13T10:57:45.679Z,-1.15
2017-02-13T10:58:57.995Z,-1
2017-02-13T11:00:11.112Z,-0.91
2017-02-13T11:01:24.211Z,-0.89
2017-02-13T11:02:36.864Z,-0.93
2017-02-13T11:03:50.008Z,-0.93
2017-02-13T11:05:02.375Z,-0.84
2017-02-13T11:06:15.076Z,-0.84
2017-02-13T11:07:28.165Z,-0.82
2017-02-13T11:08:41.287Z,-0.77
2017-02-13T11:09:54.389Z,-0.77
2017-02-13T11:11:07.521Z,-0.69
2017-02-13T11:12:20.574Z,-0.66
2017-02-13T11:13:33.637Z,-0.59
2017-02-13T11:14:46.739Z,-0.57
2017-02-13T11:15:59.904Z,-0.54
2017-02-13T11:17:12.182Z,-0.48
2017-02-13T11:18:24.902Z,-0.44
2017-02-13T11:19:38.011Z,-0.45
2017-02-13T11:20:51.126Z,-0.39
2017-02-13T11:22:03.848Z,-0.28
2017-02-13T11:23:16.568Z,-0.3
2017-02-13T11:24:29.276Z,-0.38
2017-02-13T11:25:42.407Z,-0.31
2017-02-13T11:26:55.523Z,-0.26
2017-02-13T11:28:08.602Z,-0.24
2017-02-13T11:29:21.685Z,-0.27
2017-02-13T11:30:34.768Z,-0.2
2017-02-13T11:31:47.908Z,-0.18
2017-02-13T11:33:01.004Z,-0.15
2017-02-13T11:34:14.074Z,-0.12
2017-02-13T11:35:27.146Z,-0.09
2017-02-13T11:36:40.248Z,-0.12
2017-02-13T11:37:53.630Z,-0.1
2017-02-13T11:39:06.350Z,-0.09
2017-02-13T11:40:19.404Z,-0.07
2017-02-13T11:41:32.549Z,-0.03
2017-02-13T11:42:45.620Z,0.08
2017-02-13T11:43:57.948Z,0.02
2017-02-13T11:45:11.013Z,0.08
2017-02-13T11:46:24.150Z,0.06
2017-02-13T11:47:36.871Z,0.2
2017-02-13T11:48:49.982Z,0.16
2017-02-13T11:50:03.064Z,0.12
2017-02-13T11:51:15.372Z,0.23
2017-02-13T11:52:28.486Z,0.26
2017-02-13T11:53:41.563Z,0.19
2017-02-13T11:54:54.711Z,0.26
2017-02-13T11:56:07.825Z,0.29
2017-02-13T11:57:20.563Z,0.37
2017-02-13T11:58:33.675Z,0.31
2017-02-13T11:59:46.756Z,0.4
2017-02-13T12:00:59.451Z,0.33
2017-02-13T12:02:12.197Z,0.3
2017-02-13T12:03:25.286Z,0.4
2017-02-13T12:04:38.421Z,0.42
2017-02-13T12:05:51.568Z,0.39
2017-02-13T12:07:03.895Z,0.42
2017-02-13T12:08:15.440Z,0.37
2017-02-13T12:09:28.556Z,0.4
2017-02-13T12:10:41.643Z,0.44
2017-02-13T12:11:54.346Z,0.51
2017-02-13T12:13:07.476Z,0.49
2017-02-13T12:14:20.563Z,0.56
2017-02-13T12:15:33.657Z,0.61
2017-02-13T12:16:46.698Z,0.61
2017-02-13T12:17:59.334Z,0.67
2017-02-13T12:19:12.025Z,0.58
2017-02-13T12:20:25.119Z,0.67
2017-02-13T12:21:37.811Z,0.76
2017-02-13T12:22:50.535Z,0.81
2017-02-13T12:24:02.863Z,0.81
2017-02-13T12:25:15.963Z,0.77
2017-02-13T12:26:28.695Z,0.84
2017-02-13T12:27:41.825Z,0.88
2017-02-13T12:28:54.920Z,0.85
2017-02-13T12:30:08.031Z,0.96
2017-02-13T12:31:20.730Z,0.91
2017-02-13T12:32:33.801Z,1
2017-02-13T12:33:46.872Z,1.06
2017-02-13T12:34:59.952Z,1.04
2017-02-13T12:36:12.697Z,1.2
2017-02-13T12:37:25.810Z,1.14
2017-02-13T12:38:38.931Z,1.1
2017-02-13T12:39:52.044Z,1.12
2017-02-13T12:41:04.697Z,1.18
2017-02-13T12:42:17.775Z,1.13
2017-02-13T12:43:30.870Z,1.3
2017-02-13T12:45:36.442Z,1.12
2017-02-13T12:46:49.495Z,1.2
2017-02-13T12:48:02.553Z,1.22
2017-02-13T12:49:15.298Z,1.28
2017-02-13T12:50:28.364Z,1.3
2017-02-13T12:51:41.484Z,1.34
2017-02-13T12:52:54.614Z,1.38
2017-02-13T12:54:07.677Z,1.36
2017-02-13T12:55:19.623Z,1.39
2017-02-13T12:56:32.775Z,1.48
2017-02-13T12:57:45.833Z,1.38
2017-02-13T12:58:58.878Z,1.46
2017-02-13T13:00:11.583Z,1.46
2017-02-13T13:01:24.331Z,1.46
2017-02-13T13:02:37.048Z,1.49
2017-02-13T13:03:50.162Z,1.57
2017-02-13T13:05:02.841Z,1.57
2017-02-13T13:06:15.579Z,1.56
2017-02-13T13:07:28.655Z,1.53
2017-02-13T13:08:41.728Z,1.6
2017-02-13T13:09:54.466Z,1.66
2017-02-13T13:11:07.177Z,1.63
2017-02-13T13:12:20.272Z,1.61
2017-02-13T13:13:33.405Z,1.66
2017-02-13T13:14:46.500Z,1.66
2017-02-13T13:15:59.559Z,1.68
2017-02-13T13:17:11.916Z,1.7
2017-02-13T13:18:25.045Z,1.74
2017-02-13T13:19:38.146Z,1.75
2017-02-13T13:20:51.219Z,1.7
2017-02-13T13:22:03.933Z,1.79
2017-02-13T13:23:16.235Z,1.75
2017-02-13T13:24:29.325Z,1.78
2017-02-13T13:25:42.420Z,1.76
2017-02-13T13:26:55.552Z,1.82
2017-02-13T13:28:08.667Z,1.78
2017-02-13T13:29:21.357Z,1.82
2017-02-13T13:30:34.484Z,1.89
2017-02-13T13:31:47.574Z,1.85
2017-02-13T13:33:00.653Z,1.93
2017-02-13T13:34:13.372Z,1.89
2017-02-13T13:35:26.512Z,1.97
2017-02-13T13:36:39.207Z,1.93
2017-02-13T13:37:52.561Z,1.88
2017-02-13T13:39:05.673Z,2.1
2017-02-13T13:40:18.001Z,1.98
2017-02-13T13:41:30.691Z,1.86
2017-02-13T13:42:43.787Z,1.86
2017-02-13T13:43:56.885Z,2.04
2017-02-13T13:45:09.576Z,2.08
2017-02-13T13:46:22.318Z,1.97
2017-02-13T13:47:35.424Z,2
2017-02-13T13:48:48.547Z,2
2017-02-13T13:50:01.695Z,2.01
2017-02-13T13:51:14.841Z,2.12
2017-02-13T13:52:27.954Z,2.04
2017-02-13T13:53:41.054Z,2.14
2017-02-13T13:54:54.131Z,2.05
2017-02-13T13:56:07.245Z,2.18
2017-02-13T13:57:20.315Z,2.15
2017-02-13T13:58:33.383Z,2.05
2017-02-13T13:59:46.522Z,2.16
2017-02-13T14:00:59.623Z,2.12
2017-02-13T14:02:12.313Z,2.12
2017-02-13T14:03:24.993Z,2.07
2017-02-13T14:04:38.075Z,2.22
2017-02-13T14:05:51.206Z,2.15
2017-02-13T14:07:04.314Z,2.19
2017-02-13T14:08:17.405Z,2.22
2017-02-13T14:09:30.131Z,2.25
2017-02-13T14:10:43.298Z,2.19
2017-02-13T14:11:56.437Z,2.23
2017-02-13T14:13:09.191Z,2.23
2017-02-13T14:14:22.280Z,2.28
2017-02-13T14:15:35.333Z,2.3
2017-02-13T14:16:48.395Z,2.23
2017-02-13T14:18:01.492Z,2.37
2017-02-13T14:19:13.431Z,2.33
2017-02-13T14:20:26.141Z,2.32
2017-02-13T14:21:39.197Z,2.28
2017-02-13T14:22:52.270Z,2.36
2017-02-13T14:24:05.415Z,2.34
2017-02-13T14:25:18.092Z,2.26
2017-02-13T14:26:31.197Z,2.23
2017-02-13T14:27:44.291Z,2.22
2017-02-13T14:28:57.389Z,2.32
2017-02-13T14:30:10.477Z,2.25
2017-02-13T14:31:23.173Z,2.33
2017-02-13T14:32:36.300Z,2.21
2017-02-13T14:33:48.971Z,2.23
2017-02-13T14:35:02.066Z,2.34
2017-02-13T14:36:15.112Z,2.23
2017-02-13T14:37:28.220Z,2.28
2017-02-13T14:38:41.299Z,2.23
2017-02-13T14:39:54.370Z,2.23
2017-02-13T14:41:07.414Z,2.23
2017-02-13T14:42:20.517Z,2.23
2017-02-13T14:43:33.682Z,2.18
2017-02-13T14:44:46.733Z,2.18
2017-02-13T14:45:59.424Z,2.25
2017-02-13T14:47:12.450Z,2.28
2017-02-13T14:48:25.183Z,2.19
2017-02-13T14:49:38.228Z,2.19
2017-02-13T14:50:51.289Z,2.12
2017-02-13T14:52:04.390Z,2.08
2017-02-13T14:53:17.481Z,2.07
2017-02-13T14:54:30.570Z,2.07
2017-02-13T14:55:43.690Z,2.08
2017-02-13T14:56:56.779Z,2.1
2017-02-13T14:58:09.881Z,2.04
2017-02-13T14:59:22.228Z,2.05
2017-02-13T15:00:35.292Z,2.1
2017-02-13T15:01:48.339Z,2.03
2017-02-13T15:03:01.477Z,2.04
2017-02-13T15:04:14.174Z,2
2017-02-13T15:05:27.326Z,1.95
2017-02-13T15:06:40.380Z,2
2017-02-13T15:07:53.456Z,2
2017-02-13T15:09:06.171Z,2.05
2017-02-13T15:10:18.859Z,2.03
2017-02-13T15:11:31.914Z,2.04
2017-02-13T15:12:44.639Z,1.97
2017-02-13T15:13:57.779Z,1.98
2017-02-13T15:15:10.892Z,1.89
2017-02-13T15:16:23.980Z,1.88
2017-02-13T15:17:37.109Z,1.82
2017-02-13T15:18:50.187Z,1.84
2017-02-13T15:20:03.250Z,1.75
2017-02-13T15:21:15.953Z,1.76
2017-02-13T15:22:29.069Z,1.75
2017-02-13T15:23:41.753Z,1.74
2017-02-13T15:24:54.816Z,1.68
2017-02-13T15:26:07.910Z,1.68
2017-02-13T15:27:20.676Z,1.67
2017-02-13T15:28:33.771Z,1.63
2017-02-13T15:29:46.850Z,1.58
2017-02-13T15:30:59.973Z,1.58
2017-02-13T15:32:13.000Z,1.53
2017-02-13T15:33:26.120Z,1.53
2017-02-13T15:34:39.263Z,1.43
2017-02-13T15:35:52.357Z,1.43
2017-02-13T15:37:05.412Z,1.45
2017-02-13T15:38:18.778Z,1.39
2017-02-13T15:39:31.918Z,1.28
2017-02-13T15:40:44.973Z,1.28
2017-02-13T15:41:58.059Z,1.24
2017-02-13T15:43:11.137Z,1.22
2017-02-13T15:44:24.202Z,1.27
2017-02-13T15:45:37.347Z,1.06
2017-02-13T15:46:50.060Z,1.2
2017-02-13T15:48:03.138Z,1.18
2017-02-13T15:49:15.841Z,1.13
2017-02-13T15:50:28.587Z,1.06
2017-02-13T15:51:41.702Z,1.03
2017-02-13T15:52:54.771Z,1.06
2017-02-13T15:54:07.099Z,1